Time;durP1;ratioP1;P1;durP2;ratioP2;P2;SDS_P1;SDS_P2;PMS_P1;PMS_P2;Temp;Humidity;BMP_temperature;BMP_pressure;BME280_temperature;BME280_humidity;BME280_pressure;Samples;Min_cycle;Max_cycle;Signal;HPM_P1;HPM_P2
2023/10/07 00:00:47;;;;;;;7.10;4.13;;;18.40;98.10;;;;;;5052797;28;20025;-38
2023/10/07 00:03:18;;;;;;;6.70;4.00;;;18.40;97.80;;;;;;5051479;28;20031;-33
2023/10/07 00:05:47;;;;;;;7.18;3.72;;;18.40;97.70;;;;;;5052577;28;20103;-36
2023/10/07 00:08:16;;;;;;;6.90;3.97;;;18.40;97.70;;;;;;5052782;28;20100;-33
2023/10/07 00:10:43;;;;;;;6.53;3.95;;;18.40;97.80;;;;;;5051356;28;20017;-33
2023/10/07 00:13:10;;;;;;;5.28;3.70;;;18.40;97.70;;;;;;5052533;28;20048;-39
2023/10/07 00:15:47;;;;;;;6.75;3.90;;;18.40;97.80;;;;;;5052536;28;20103;-38
2023/10/07 00:18:14;;;;;;;7.50;4.30;;;18.40;97.70;;;;;;5052590;28;20482;-39
2023/10/07 00:20:55;;;;;;;6.38;3.90;;;18.40;97.70;;;;;;5052388;28;20116;-37
2023/10/07 00:23:22;;;;;;;6.60;4.10;;;18.40;97.70;;;;;;5052368;28;20028;-37
2023/10/07 00:25:54;;;;;;;8.25;3.80;;;18.40;97.60;;;;;;5052559;28;20013;-37
2023/10/07 00:30:53;;;;;;;6.88;4.05;;;18.40;97.60;;;;;;5052308;28;20029;-35
2023/10/07 00:33:22;;;;;;;8.02;4.40;;;18.40;97.60;;;;;;5052349;28;20540;-35
2023/10/07 00:35:51;;;;;;;8.18;4.13;;;18.40;97.50;;;;;;5051968;28;20037;-35
2023/10/07 00:38:21;;;;;;;8.18;4.45;;;18.40;97.50;;;;;;5051989;28;20457;-35
2023/10/07 00:40:56;;;;;;;7.35;4.10;;;18.40;97.50;;;;;;5052277;28;20047;-35
2023/10/07 00:43:25;;;;;;;7.97;4.13;;;18.40;97.50;;;;;;5051894;28;20025;-35
2023/10/07 00:45:56;;;;;;;7.00;4.20;;;18.30;97.40;;;;;;5051856;28;20013;-35
2023/10/07 00:48:26;;;;;;;6.55;4.03;;;18.30;97.40;;;;;;5052150;28;20082;-35
2023/10/07 00:50:52;;;;;;;6.32;4.00;;;18.30;97.40;;;;;;5051909;28;20021;-35
2023/10/07 00:53:24;;;;;;;6.25;3.67;;;18.40;97.40;;;;;;5052111;28;20035;-35
2023/10/07 00:55:52;;;;;;;6.68;3.58;;;18.30;97.40;;;;;;5051770;28;20481;-35
2023/10/07 00:58:21;;;;;;;5.72;3.90;;;18.30;97.30;;;;;;5051512;28;20413;-35
2023/10/07 01:00:48;;;;;;;6.75;3.90;;;18.30;97.30;;;;;;5051447;28;20233;-35
2023/10/07 01:03:32;;;;;;;7.25;4.03;;;18.30;97.30;;;;;;5051484;28;20079;-35
2023/10/07 01:08:35;;;;;;;7.63;4.43;;;18.30;97.30;;;;;;5051738;28;20036;-35
2023/10/07 01:11:39;;;;;;;8.20;4.18;;;18.30;97.20;;;;;;5051656;28;20090;-35
2023/10/07 01:13:56;;;;;;;7.95;4.50;;;18.30;97.20;;;;;;5051258;28;20386;-35
2023/10/07 01:16:28;;;;;;;6.45;3.88;;;18.30;97.20;;;;;;5051356;28;20040;-35
2023/10/07 01:19:43;;;;;;;6.95;4.10;;;18.30;97.20;;;;;;5051433;28;20025;-35
2023/10/07 01:21:55;;;;;;;8.57;4.30;;;18.30;97.20;;;;;;5050785;28;20032;-35
2023/10/07 01:27:21;;;;;;;6.60;3.80;;;18.20;97.10;;;;;;5051574;28;20074;-35
2023/10/07 01:29:49;;;;;;;6.50;4.18;;;18.30;97.10;;;;;;5051583;28;20025;-35
2023/10/07 01:32:17;;;;;;;7.53;3.90;;;18.20;97.10;;;;;;5051247;28;20028;-35
2023/10/07 01:34:47;;;;;;;6.95;3.95;;;18.20;97.10;;;;;;5051860;28;20039;-36
2023/10/07 01:37:15;;;;;;;7.90;4.00;;;18.20;97.00;;;;;;5051177;28;20504;-33
2023/10/07 01:39:43;;;;;;;6.63;3.72;;;18.20;97.00;;;;;;5051244;28;20040;-34
2023/10/07 01:42:13;;;;;;;8.32;4.20;;;18.20;97.00;;;;;;5051082;28;20021;-34
2023/10/07 01:44:40;;;;;;;7.13;4.57;;;18.20;97.00;;;;;;5051158;28;20371;-33
2023/10/07 01:47:17;;;;;;;8.38;4.63;;;18.20;97.00;;;;;;5050958;28;20072;-35
2023/10/07 01:49:43;;;;;;;8.40;4.05;;;18.20;97.00;;;;;;5051167;28;20503;-36
2023/10/07 01:52:09;;;;;;;6.65;3.72;;;18.20;96.90;;;;;;5051091;28;20056;-33
2023/10/07 01:54:35;;;;;;;6.47;4.18;;;18.20;97.20;;;;;;5051034;28;20075;-38
2023/10/07 01:57:04;;;;;;;7.70;4.28;;;18.20;96.90;;;;;;5051121;28;20037;-33
2023/10/07 01:59:30;;;;;;;7.43;3.92;;;18.20;96.90;;;;;;5050876;28;20021;-33
2023/10/07 02:02:06;;;;;;;7.45;3.78;;;18.10;96.80;;;;;;5050923;28;20116;-34
2023/10/07 02:04:33;;;;;;;6.38;4.05;;;18.20;96.80;;;;;;5050943;28;20025;-35
2023/10/07 02:06:58;;;;;;;6.63;4.13;;;18.20;96.80;;;;;;5050845;28;20509;-33
2023/10/07 02:09:25;;;;;;;8.48;4.43;;;18.10;96.70;;;;;;5050957;28;20052;-33
2023/10/07 02:11:52;;;;;;;8.80;4.40;;;18.20;96.80;;;;;;5054392;28;20036;-36
2023/10/07 02:14:21;;;;;;;7.38;3.95;;;18.10;96.70;;;;;;5054917;28;20325;-35
2023/10/07 02:16:46;;;;;;;6.32;4.00;;;18.10;96.70;;;;;;5054945;28;20025;-35
2023/10/07 02:19:14;;;;;;;6.68;4.07;;;18.10;96.70;;;;;;5054789;28;20033;-35
2023/10/07 02:21:41;;;;;;;7.25;4.05;;;18.10;96.70;;;;;;5054684;28;20017;-35
2023/10/07 02:24:08;;;;;;;7.53;4.13;;;18.10;96.60;;;;;;5054730;28;20021;-34
2023/10/07 02:26:34;;;;;;;6.50;4.00;;;18.10;96.60;;;;;;5054439;28;20095;-36
2023/10/07 02:29:13;;;;;;;8.05;4.22;;;18.10;96.60;;;;;;5054543;28;20548;-35
2023/10/07 02:31:42;;;;;;;6.65;3.83;;;18.10;96.50;;;;;;5054693;28;20406;-38
2023/10/07 02:34:10;;;;;;;7.72;4.10;;;18.10;96.50;;;;;;5054540;28;20029;-36
2023/10/07 02:36:51;;;;;;;6.88;4.10;;;18.10;96.50;;;;;;5054359;28;20453;-37
2023/10/07 02:39:19;;;;;;;6.57;3.85;;;18.10;96.50;;;;;;5054365;28;20394;-36
2023/10/07 02:41:47;;;;;;;7.88;4.07;;;18.10;96.50;;;;;;5054314;28;20107;-37
2023/10/07 02:44:27;;;;;;;8.10;4.63;;;18.00;96.40;;;;;;5054397;28;20021;-37
2023/10/07 02:46:54;;;;;;;8.60;4.15;;;18.00;96.40;;;;;;5054206;28;20028;-37
2023/10/07 02:49:21;;;;;;;6.50;4.10;;;18.00;96.40;;;;;;5054154;28;20374;-37
2023/10/07 02:51:49;;;;;;;7.28;4.47;;;18.10;96.40;;;;;;5054262;28;20429;-35
2023/10/07 02:54:17;;;;;;;7.65;4.15;;;18.00;96.40;;;;;;5054191;28;20025;-35
2023/10/07 02:56:53;;;;;;;7.25;3.85;;;18.00;96.30;;;;;;5054243;28;20377;-37
2023/10/07 03:04:36;;;;;;;5.63;3.88;;;18.00;96.40;;;;;;5054306;28;20051;-37
2023/10/07 03:07:14;;;;;;;6.30;4.20;;;18.10;96.40;;;;;;5054030;28;20063;-36
2023/10/07 03:09:42;;;;;;;7.55;4.13;;;18.00;96.40;;;;;;5054188;28;20025;-37
2023/10/07 03:12:13;;;;;;;7.55;4.45;;;18.00;96.40;;;;;;5054014;28;20656;-36
2023/10/07 03:14:39;;;;;;;6.72;4.10;;;18.00;96.30;;;;;;5053859;28;20029;-36
2023/10/07 03:17:16;;;;;;;7.07;3.90;;;18.00;96.30;;;;;;5056887;28;20159;-36
2023/10/07 03:19:56;;;;;;;7.47;4.10;;;18.00;96.30;;;;;;5058706;28;20096;-35
2023/10/07 03:22:42;;;;;;;6.55;3.50;;;18.00;96.30;;;;;;5053367;28;20458;-35
2023/10/07 03:25:08;;;;;;;7.50;3.97;;;18.00;96.20;;;;;;5053543;28;20043;-35
2023/10/07 03:27:39;;;;;;;5.82;3.60;;;18.00;96.30;;;;;;5053513;28;20055;-36
2023/10/07 03:30:15;;;;;;;6.72;3.75;;;18.00;96.20;;;;;;5053635;28;20028;-35
2023/10/07 03:32:57;;;;;;;6.60;4.00;;;18.00;96.20;;;;;;5053469;28;20039;-35
2023/10/07 03:38:10;;;;;;;7.00;4.28;;;18.00;96.20;;;;;;5053361;28;20048;-35
2023/10/07 03:40:38;;;;;;;6.63;3.72;;;17.90;96.20;;;;;;5053313;28;20517;-37
2023/10/07 03:43:06;;;;;;;6.97;4.10;;;18.00;96.20;;;;;;5053173;28;20029;-37
2023/10/07 03:45:32;;;;;;;7.43;4.07;;;18.00;96.10;;;;;;5053018;28;20017;-38
2023/10/07 03:47:58;;;;;;;6.60;4.05;;;18.00;96.10;;;;;;5052939;28;20028;-36
2023/10/07 03:50:34;;;;;;;6.25;4.05;;;18.00;96.20;;;;;;5053150;28;20021;-38
2023/10/07 03:53:05;;;;;;;7.43;4.00;;;17.90;96.10;;;;;;5053082;28;20453;-36
2023/10/07 03:55:31;;;;;;;6.18;3.80;;;17.90;96.10;;;;;;5052998;28;20112;-37
2023/10/07 03:57:56;;;;;;;7.85;4.28;;;17.90;96.00;;;;;;5052904;28;20099;-37
2023/10/07 04:00:28;;;;;;;5.93;3.70;;;18.00;96.10;;;;;;5053286;28;20025;-39
2023/10/07 04:02:54;;;;;;;7.88;4.32;;;17.90;96.00;;;;;;5035859;28;20040;-36
2023/10/07 04:05:31;;;;;;;6.80;3.78;;;17.90;96.00;;;;;;5052703;28;20027;-37
2023/10/07 04:07:57;;;;;;;6.95;4.32;;;17.90;95.90;;;;;;5052710;28;20527;-37
2023/10/07 04:10:23;;;;;;;6.93;4.10;;;17.90;96.00;;;;;;5052774;28;20016;-38
2023/10/07 04:12:49;;;;;;;7.22;3.97;;;17.90;96.00;;;;;;5052631;28;20490;-37
2023/10/07 04:15:18;;;;;;;6.13;3.78;;;17.90;95.90;;;;;;5052769;28;20021;-40
2023/10/07 04:17:45;;;;;;;6.28;4.10;;;17.90;95.90;;;;;;5052804;28;20108;-38
2023/10/07 04:20:28;;;;;;;5.85;3.92;;;17.90;95.90;;;;;;5052740;28;20028;-37
2023/10/07 04:23:02;;;;;;;5.10;3.67;;;17.90;95.90;;;;;;5052447;28;20021;-38
2023/10/07 04:25:29;;;;;;;7.53;4.28;;;17.90;95.80;;;;;;5052215;28;20031;-36
2023/10/07 04:27:55;;;;;;;6.18;3.63;;;17.80;95.90;;;;;;5052401;28;20028;-37
2023/10/07 04:30:28;;;;;;;6.45;3.97;;;17.90;95.90;;;;;;5052294;28;20382;-39
2023/10/07 04:35:48;;;;;;;6.38;3.65;;;17.90;95.90;;;;;;5052243;28;20398;-39
2023/10/07 04:43:37;;;;;;;8.43;4.55;;;17.90;96.20;;;;;;5052078;28;20117;-39
2023/10/07 04:46:21;;;;;;;6.90;4.32;;;17.90;95.90;;;;;;5051762;28;20399;-37
2023/10/07 04:48:56;;;;;;;6.40;3.90;;;17.80;95.80;;;;;;5052106;28;20023;-36
2023/10/07 04:52:06;;;;;;;9.30;4.20;;;17.80;95.80;;;;;;5052186;28;20033;-37
2023/10/07 04:54:20;;;;;;;7.03;4.13;;;17.80;95.80;;;;;;5051358;28;20033;-39
2023/10/07 04:56:48;;;;;;;6.15;4.13;;;17.80;95.80;;;;;;5051731;28;20029;-41
2023/10/07 04:59:17;;;;;;;7.30;4.20;;;17.80;95.80;;;;;;5051701;28;20025;-37
2023/10/07 05:01:47;;;;;;;6.50;3.78;;;17.80;95.80;;;;;;5051677;28;20460;-37
2023/10/07 05:04:15;;;;;;;7.47;3.70;;;17.80;95.80;;;;;;5050471;28;20052;-39
2023/10/07 05:06:43;;;;;;;7.38;4.38;;;17.80;95.80;;;;;;5051605;28;20203;-37
2023/10/07 05:09:09;;;;;;;8.70;3.88;;;17.80;95.70;;;;;;5051561;28;20032;-40
2023/10/07 05:11:42;;;;;;;6.65;4.38;;;17.80;95.70;;;;;;5051787;28;20053;-37
2023/10/07 05:14:10;;;;;;;7.70;3.87;;;17.80;95.70;;;;;;5051574;28;20077;-37
2023/10/07 05:16:37;;;;;;;9.15;4.10;;;17.80;95.70;;;;;;5051308;28;20394;-36
2023/10/07 05:19:04;;;;;;;6.35;3.65;;;17.80;95.60;;;;;;5051504;28;20116;-37
2023/10/07 05:21:31;;;;;;;7.90;4.30;;;17.80;95.60;;;;;;5051330;28;20067;-39
2023/10/07 05:24:02;;;;;;;6.40;3.90;;;17.80;95.70;;;;;;5051514;28;20045;-37
2023/10/07 05:26:30;;;;;;;7.50;4.50;;;17.70;96.00;;;;;;5051356;28;20107;-37
2023/10/07 05:29:01;;;;;;;7.28;4.22;;;17.70;95.50;;;;;;5051374;28;20021;-39
2023/10/07 05:31:30;;;;;;;7.70;4.10;;;17.80;95.60;;;;;;5051375;28;20466;-39
2023/10/07 05:33:59;;;;;;;6.18;3.88;;;17.80;95.50;;;;;;5051211;28;20517;-40
2023/10/07 05:36:30;;;;;;;7.97;4.47;;;17.70;95.50;;;;;;5051346;28;20029;-41
2023/10/07 05:38:56;;;;;;;6.63;3.97;;;17.80;95.60;;;;;;5051377;28;20014;-39
2023/10/07 05:41:25;;;;;;;6.80;3.97;;;17.70;95.60;;;;;;5051255;28;20032;-37
2023/10/07 05:43:51;;;;;;;6.95;4.03;;;17.70;95.50;;;;;;5051081;28;20390;-37
2023/10/07 05:46:19;;;;;;;8.18;4.15;;;17.70;95.50;;;;;;5050478;28;20025;-41
2023/10/07 05:48:45;;;;;;;6.15;3.80;;;17.70;95.50;;;;;;5051930;28;20029;-36
2023/10/07 05:51:12;;;;;;;7.22;4.30;;;17.70;95.50;;;;;;5055254;28;20032;-35
2023/10/07 05:53:48;;;;;;;6.68;4.00;;;17.70;95.50;;;;;;5051148;28;20091;-35
2023/10/07 05:56:14;;;;;;;6.35;3.97;;;17.70;95.40;;;;;;5051018;28;20104;-36
2023/10/07 05:58:40;;;;;;;6.30;3.85;;;17.70;95.50;;;;;;5051061;28;20033;-36
2023/10/07 06:01:12;;;;;;;5.53;3.80;;;17.70;95.50;;;;;;5050869;28;20029;-35
2023/10/07 06:03:38;;;;;;;8.52;4.50;;;17.70;95.50;;;;;;5051256;28;20029;-35
2023/10/07 06:06:04;;;;;;;7.70;3.78;;;17.70;95.50;;;;;;5051028;28;20471;-36
2023/10/07 06:08:32;;;;;;;7.18;4.28;;;17.70;95.50;;;;;;5051067;28;20033;-36
2023/10/07 06:10:59;;;;;;;5.93;3.67;;;17.70;95.50;;;;;;5051020;28;20371;-35
2023/10/07 06:13:29;;;;;;;6.50;3.78;;;17.70;95.50;;;;;;5050991;28;20052;-37
2023/10/07 06:15:57;;;;;;;6.70;4.18;;;17.70;95.50;;;;;;5050799;28;20021;-36
2023/10/07 06:18:23;;;;;;;8.13;4.25;;;17.70;95.50;;;;;;5050801;28;20486;-35
2023/10/07 06:20:51;;;;;;;6.60;3.80;;;17.70;95.50;;;;;;5050942;28;20047;-37
2023/10/07 06:23:24;;;;;;;6.22;4.05;;;17.70;95.50;;;;;;5050813;28;20060;-35
2023/10/07 06:25:50;;;;;;;6.75;4.03;;;17.70;95.50;;;;;;5050669;28;20022;-35
2023/10/07 06:28:29;;;;;;;6.45;3.88;;;17.80;95.60;;;;;;5050657;28;20029;-35
2023/10/07 06:31:13;;;;;;;8.27;4.22;;;17.70;95.50;;;;;;5050847;28;20427;-38
2023/10/07 06:33:43;;;;;;;6.50;3.88;;;17.80;95.60;;;;;;5050932;28;20032;-35
2023/10/07 06:36:12;;;;;;;7.32;4.00;;;17.80;95.60;;;;;;5050724;28;20093;-37
2023/10/07 06:39:01;;;;;;;7.22;4.20;;;17.80;95.60;;;;;;5050897;28;20117;-36
2023/10/07 06:41:29;;;;;;;6.90;3.92;;;17.80;95.60;;;;;;5050751;28;20095;-38
2023/10/07 06:44:08;;;;;;;9.88;5.18;;;17.80;95.60;;;;;;5050819;28;20474;-38
2023/10/07 06:46:41;;;;;;;10.73;5.95;;;16.80;92.90;;;;;;5050887;28;20079;-38
2023/10/07 06:49:15;;;;;;;9.57;5.32;;;16.10;94.60;;;;;;5052351;28;20032;-38
2023/10/07 06:51:41;;;;;;;12.60;5.43;;;16.20;95.20;;;;;;5052136;28;20056;-36
2023/10/07 06:54:07;;;;;;;14.38;4.72;;;16.10;94.70;;;;;;5050584;28;20059;-36
2023/10/07 06:56:34;;;;;;;13.75;5.45;;;15.90;95.20;;;;;;5050420;28;20033;-36
2023/10/07 06:58:59;;;;;;;10.52;5.03;;;16.00;95.50;;;;;;5053895;28;20021;-36
2023/10/07 07:01:51;;;;;;;11.65;5.10;;;16.20;95.50;;;;;;5053997;28;20424;-36
2023/10/07 07:04:19;;;;;;;13.00;5.00;;;16.40;95.50;;;;;;5054143;28;20032;-36
2023/10/07 07:06:46;;;;;;;9.95;4.68;;;16.60;95.40;;;;;;5053956;28;20029;-36
2023/10/07 07:12:04;;;;;;;14.75;4.68;;;16.90;95.30;;;;;;5054005;28;20039;-36
2023/10/07 07:14:30;;;;;;;12.10;5.20;;;17.00;95.20;;;;;;5053763;28;20028;-36
2023/10/07 07:17:17;;;;;;;9.65;4.45;;;17.20;95.20;;;;;;5053671;28;20075;-36
2023/10/07 07:19:44;;;;;;;10.45;5.20;;;17.20;95.20;;;;;;5053637;28;20075;-34
2023/10/07 07:22:11;;;;;;;10.00;4.20;;;17.30;95.20;;;;;;5054044;28;20025;-36
2023/10/07 07:24:37;;;;;;;8.27;4.53;;;17.40;95.10;;;;;;5053406;28;20426;-36
2023/10/07 07:27:02;;;;;;;7.00;4.32;;;17.50;95.20;;;;;;5053450;28;20074;-35
2023/10/07 07:29:30;;;;;;;9.73;4.20;;;17.50;95.10;;;;;;5052153;28;20028;-36
2023/10/07 07:31:55;;;;;;;10.60;4.65;;;17.60;95.10;;;;;;5053393;28;20048;-36
2023/10/07 07:34:36;;;;;;;9.98;4.72;;;17.60;95.10;;;;;;5053917;28;20029;-36
2023/10/07 07:37:05;;;;;;;11.13;4.50;;;17.70;95.20;;;;;;5053360;28;20051;-36
2023/10/07 07:39:31;;;;;;;9.73;4.65;;;17.70;95.20;;;;;;5053366;28;20402;-36
2023/10/07 07:42:22;;;;;;;7.57;4.20;;;17.70;95.10;;;;;;5053204;28;20041;-36
2023/10/07 07:44:57;;;;;;;10.50;4.93;;;17.80;95.20;;;;;;5053164;28;20025;-35
2023/10/07 07:47:27;;;;;;;9.18;4.60;;;17.80;95.20;;;;;;5052989;28;20021;-36
2023/10/07 07:49:53;;;;;;;8.88;4.35;;;17.80;95.20;;;;;;5053383;28;20029;-35
2023/10/07 07:52:19;;;;;;;9.95;4.35;;;17.90;95.20;;;;;;5053291;28;20032;-36
2023/10/07 07:54:45;;;;;;;9.23;4.18;;;17.90;95.20;;;;;;5052943;28;20238;-36
2023/10/07 07:57:12;;;;;;;8.50;4.88;;;17.90;95.30;;;;;;5037320;28;20561;-36
2023/10/07 07:59:38;;;;;;;8.65;3.95;;;17.90;95.30;;;;;;5033178;28;20030;-36
2023/10/07 08:02:13;;;;;;;9.30;4.13;;;17.90;95.30;;;;;;5032808;28;20228;-36
2023/10/07 08:04:46;;;;;;;6.28;3.92;;;17.90;95.30;;;;;;5033114;28;20399;-36
2023/10/07 08:07:21;;;;;;;8.00;3.70;;;18.00;95.40;;;;;;5032997;28;20056;-37
2023/10/07 08:09:50;;;;;;;6.47;4.00;;;18.00;95.30;;;;;;4963314;28;20030;-37
2023/10/07 08:12:35;;;;;;;9.05;4.45;;;18.00;95.40;;;;;;5012610;28;20026;-37
2023/10/07 08:15:38;;;;;;;9.02;4.05;;;18.00;95.30;;;;;;5012925;28;20022;-37
2023/10/07 08:17:56;;;;;;;9.77;5.00;;;18.10;95.40;;;;;;5011537;28;20038;-35
2023/10/07 08:20:37;;;;;;;11.10;4.88;;;18.00;96.40;;;;;;5012825;28;20025;-37
2023/10/07 08:23:07;;;;;;;7.63;4.50;;;17.80;97.60;;;;;;5012830;28;20054;-37
2023/10/07 08:25:46;;;;;;;9.45;4.85;;;17.60;97.60;;;;;;5012892;28;20486;-36
2023/10/07 08:31:12;;;;;;;9.88;4.35;;;17.60;97.50;;;;;;5011484;28;20508;-38
2023/10/07 08:33:38;;;;;;;9.18;4.57;;;17.70;97.30;;;;;;5012885;28;20025;-40
2023/10/07 08:36:07;;;;;;;11.43;4.95;;;17.70;97.20;;;;;;5012493;28;20368;-36
2023/10/07 08:38:45;;;;;;;7.93;4.45;;;17.80;97.10;;;;;;5012506;28;20018;-39
2023/10/07 08:41:16;;;;;;;10.23;4.60;;;17.80;97.00;;;;;;5012573;28;20052;-41
2023/10/07 08:43:44;;;;;;;7.70;4.10;;;17.90;97.00;;;;;;5012352;28;20029;-41
2023/10/07 08:46:16;;;;;;;7.15;4.07;;;17.90;96.90;;;;;;5012710;28;20026;-39
2023/10/07 08:48:49;;;;;;;7.15;4.10;;;17.90;96.80;;;;;;5012333;28;20025;-41
2023/10/07 08:51:23;;;;;;;9.23;4.57;;;18.00;96.80;;;;;;5012436;28;20022;-38
2023/10/07 08:53:50;;;;;;;8.40;4.22;;;18.00;96.70;;;;;;5012269;28;20722;-39
2023/10/07 08:56:19;;;;;;;8.25;4.65;;;18.00;96.70;;;;;;5011975;28;20037;-36
2023/10/07 08:58:49;;;;;;;8.93;4.50;;;18.00;96.70;;;;;;5012197;28;20060;-36
2023/10/07 09:01:19;;;;;;;6.50;4.25;;;18.10;96.70;;;;;;5012193;28;20026;-35
2023/10/07 09:03:47;;;;;;;6.30;4.00;;;18.10;96.60;;;;;;5012148;28;20392;-36
2023/10/07 09:06:14;;;;;;;6.97;3.65;;;18.20;96.50;;;;;;5011955;28;20032;-36
2023/10/07 09:08:40;;;;;;;9.15;4.28;;;18.30;96.50;;;;;;5011776;28;20025;-40
2023/10/07 09:11:07;;;;;;;7.75;4.03;;;18.30;96.40;;;;;;5012015;28;20108;-37
2023/10/07 09:13:34;;;;;;;6.95;3.83;;;18.30;96.40;;;;;;5012017;28;20072;-37
2023/10/07 09:15:59;;;;;;;6.93;4.18;;;18.30;96.40;;;;;;5011789;28;20123;-39
2023/10/07 09:18:31;;;;;;;8.98;4.30;;;18.30;96.30;;;;;;5012601;28;20575;-36
2023/10/07 09:20:57;;;;;;;10.00;4.45;;;18.30;96.70;;;;;;5011114;28;20029;-38
2023/10/07 09:23:33;;;;;;;6.03;3.88;;;18.30;96.30;;;;;;5011639;28;20034;-36
2023/10/07 09:26:16;;;;;;;7.18;3.78;;;18.40;96.40;;;;;;5011884;28;20032;-36
2023/10/07 09:28:46;;;;;;;7.65;3.83;;;18.30;96.30;;;;;;5011712;28;20018;-38
2023/10/07 09:31:15;;;;;;;7.20;4.05;;;18.30;96.30;;;;;;5012726;28;20052;-38
2023/10/07 09:33:41;;;;;;;6.53;4.10;;;18.30;96.30;;;;;;5011650;28;20054;-44
2023/10/07 09:36:33;;;;;;;6.30;3.53;;;18.30;96.40;;;;;;5011622;28;20057;-35
2023/10/07 09:39:34;;;;;;;8.05;4.00;;;18.30;96.40;;;;;;5011551;28;20030;-37
2023/10/07 09:42:03;;;;;;;6.80;3.67;;;18.30;96.40;;;;;;5010222;28;20399;-39
2023/10/07 09:44:37;;;;;;;7.57;4.00;;;18.30;96.40;;;;;;5011556;28;20033;-38
2023/10/07 09:47:10;;;;;;;7.38;3.90;;;18.30;96.40;;;;;;5011741;28;20018;-35
2023/10/07 09:49:36;;;;;;;6.78;3.38;;;18.30;96.40;;;;;;5011532;28;20105;-37
2023/10/07 09:52:16;;;;;;;7.30;3.92;;;18.30;96.40;;;;;;5011476;28;20104;-38
2023/10/07 09:55:19;;;;;;;6.03;3.72;;;18.30;96.40;;;;;;5011638;28;20033;-35
2023/10/07 09:58:17;;;;;;;5.97;3.63;;;18.30;96.40;;;;;;5011380;28;20026;-38
2023/10/07 10:01:05;;;;;;;6.45;3.67;;;18.30;96.40;;;;;;5011373;28;20096;-38
2023/10/07 10:03:59;;;;;;;8.93;3.58;;;18.30;96.50;;;;;;5011477;28;20030;-36
2023/10/07 10:06:50;;;;;;;8.37;4.87;;;18.30;96.80;;;;;;5010015;28;20519;-37
2023/10/07 10:09:27;;;;;;;10.05;4.55;;;18.20;97.40;;;;;;5011361;28;20288;-38
2023/10/07 10:12:18;;;;;;;8.63;4.25;;;18.20;97.50;;;;;;5011523;28;20092;-34
2023/10/07 10:14:56;;;;;;;9.95;4.47;;;18.20;97.40;;;;;;5011478;28;20384;-37
2023/10/07 10:17:39;;;;;;;10.57;3.97;;;18.30;97.40;;;;;;5011242;28;20026;-36
2023/10/07 10:20:14;;;;;;;9.18;4.43;;;18.20;97.40;;;;;;5011854;28;20049;-37
2023/10/07 10:22:59;;;;;;;9.43;4.10;;;18.30;97.40;;;;;;5011818;28;20044;-37
2023/10/07 10:25:36;;;;;;;9.60;3.90;;;18.30;97.40;;;;;;5011954;28;20025;-41
2023/10/07 10:28:03;;;;;;;8.93;3.63;;;18.30;97.40;;;;;;5011423;28;20092;-34
2023/10/07 10:30:30;;;;;;;8.23;4.40;;;18.30;97.40;;;;;;5011260;28;20030;-36
2023/10/07 10:33:00;;;;;;;10.32;3.88;;;18.30;97.30;;;;;;5014793;28;20060;-36
2023/10/07 10:35:27;;;;;;;7.70;3.90;;;18.30;97.30;;;;;;5015085;28;20029;-36
2023/10/07 10:37:59;;;;;;;5.93;3.55;;;18.40;97.30;;;;;;5015124;28;20368;-36
2023/10/07 10:40:31;;;;;;;8.20;4.20;;;18.40;97.30;;;;;;5014782;28;20045;-35
2023/10/07 10:42:57;;;;;;;5.90;3.50;;;18.40;97.30;;;;;;5014709;28;20033;-36
2023/10/07 10:45:29;;;;;;;7.43;3.80;;;18.40;97.20;;;;;;5014549;28;20018;-38
2023/10/07 10:47:59;;;;;;;9.55;4.63;;;18.40;97.20;;;;;;5014489;28;20495;-39
2023/10/07 10:50:28;;;;;;;6.75;3.70;;;18.50;98.10;;;;;;5014625;28;20018;-34
2023/10/07 10:52:55;;;;;;;6.80;3.85;;;18.50;97.30;;;;;;5014478;28;20033;-37
2023/10/07 10:55:26;;;;;;;6.10;3.40;;;18.40;97.50;;;;;;5014458;28;20037;-36
2023/10/07 10:57:52;;;;;;;8.15;3.50;;;18.60;99.20;;;;;;5014577;28;20037;-36
2023/10/07 11:00:19;;;;;;;6.53;4.00;;;18.50;98.00;;;;;;5014681;28;20172;-37
2023/10/07 11:02:55;;;;;;;7.07;3.97;;;18.50;98.20;;;;;;5014987;28;20026;-36
2023/10/07 11:05:21;;;;;;;6.97;3.67;;;18.50;98.70;;;;;;5014877;28;20068;-36
2023/10/07 11:07:50;;;;;;;7.78;3.63;;;18.50;99.00;;;;;;5014334;28;20061;-37
2023/10/07 11:10:23;;;;;;;7.25;3.78;;;18.60;99.80;;;;;;5014331;28;20390;-38
2023/10/07 11:12:52;;;;;;;8.35;3.30;;;18.60;99.90;;;;;;5014262;28;20026;-38
2023/10/07 11:15:29;;;;;;;7.00;3.75;;;18.50;99.90;;;;;;5014099;28;20052;-37
2023/10/07 11:18:11;;;;;;;6.97;3.58;;;18.60;99.60;;;;;;5013910;28;20049;-37
2023/10/07 11:20:40;;;;;;;9.30;3.70;;;18.50;99.90;;;;;;5014003;28;20041;-36
2023/10/07 11:23:08;;;;;;;6.43;3.30;;;18.50;99.90;;;;;;5014028;28;20080;-36
2023/10/07 11:25:35;;;;;;;6.60;3.22;;;18.60;99.90;;;;;;5014070;28;20018;-42
2023/10/07 11:28:09;;;;;;;7.72;3.90;;;18.60;99.90;;;;;;5013769;28;20022;-37
2023/10/07 11:30:48;;;;;;;6.05;3.25;;;18.60;99.90;;;;;;5013971;28;20096;-36
2023/10/07 11:33:16;;;;;;;5.88;3.05;;;18.60;99.90;;;;;;5013946;28;20519;-36
2023/10/07 11:35:42;;;;;;;5.63;3.35;;;18.60;99.90;;;;;;5013658;28;20061;-36
2023/10/07 11:38:09;;;;;;;7.05;3.70;;;18.60;99.90;;;;;;5013744;28;20076;-41
2023/10/07 11:40:35;;;;;;;5.50;3.33;;;18.60;99.90;;;;;;5013771;28;20026;-42
2023/10/07 11:43:09;;;;;;;5.95;3.35;;;18.60;99.90;;;;;;5012771;28;20026;-39
2023/10/07 11:45:42;;;;;;;5.78;3.35;;;18.70;99.90;;;;;;5013573;28;20526;-34
2023/10/07 11:48:08;;;;;;;4.93;3.03;;;18.60;99.90;;;;;;5027849;28;20022;-37
2023/10/07 11:50:35;;;;;;;5.32;3.25;;;18.60;99.90;;;;;;5013835;28;20030;-37
2023/10/07 11:53:07;;;;;;;6.30;3.35;;;18.60;99.90;;;;;;5013444;28;20033;-34
2023/10/07 11:55:33;;;;;;;6.35;3.20;;;18.60;99.90;;;;;;5013358;28;20034;-36
2023/10/07 11:57:59;;;;;;;5.60;3.03;;;18.60;99.90;;;;;;5013421;28;20033;-37
2023/10/07 12:00:29;;;;;;;5.57;3.28;;;18.60;99.90;;;;;;5013380;28;20394;-38
2023/10/07 12:02:58;;;;;;;6.00;3.20;;;18.60;99.90;;;;;;5013268;28;20040;-36
2023/10/07 12:05:27;;;;;;;5.55;2.95;;;18.60;99.90;;;;;;5013549;28;20029;-37
2023/10/07 12:08:02;;;;;;;4.18;2.47;;;18.60;99.90;;;;;;5012966;28;20022;-41
2023/10/07 12:10:29;;;;;;;7.32;3.10;;;18.60;99.90;;;;;;5013216;28;20018;-36
2023/10/07 12:12:56;;;;;;;5.50;3.05;;;18.60;99.90;;;;;;5013128;28;20360;-36
2023/10/07 12:15:21;;;;;;;5.15;2.88;;;18.60;99.90;;;;;;5013057;28;20029;-34
2023/10/07 12:17:50;;;;;;;5.68;3.05;;;18.60;99.90;;;;;;5012837;28;20022;-37
2023/10/07 12:20:16;;;;;;;4.68;2.75;;;18.60;99.90;;;;;;5012751;28;20131;-38
2023/10/07 12:22:42;;;;;;;6.68;3.10;;;18.60;99.90;;;;;;5012977;28;20061;-40
2023/10/07 12:25:15;;;;;;;4.82;3.05;;;18.60;99.90;;;;;;5012829;28;20538;-34
2023/10/07 12:27:44;;;;;;;5.53;2.90;;;18.50;99.90;;;;;;5012709;28;20022;-35
2023/10/07 12:30:11;;;;;;;5.07;3.17;;;18.40;96.60;;;;;;5012732;28;20037;-34
2023/10/07 12:32:39;;;;;;;5.28;3.10;;;18.50;96.90;;;;;;5013100;28;20037;-37
2023/10/07 12:35:05;;;;;;;4.32;2.58;;;18.50;96.90;;;;;;5012533;28;20021;-35
2023/10/07 12:37:31;;;;;;;3.60;2.60;;;18.50;96.90;;;;;;5012690;28;20436;-35
2023/10/07 12:39:57;;;;;;;4.63;2.70;;;18.50;96.90;;;;;;5012593;28;20419;-35
2023/10/07 12:42:25;;;;;;;4.78;2.78;;;18.50;96.90;;;;;;5012501;28;20034;-34
2023/10/07 12:44:51;;;;;;;7.85;3.08;;;18.50;96.90;;;;;;5012345;28;20030;-38
2023/10/07 12:47:17;;;;;;;4.43;2.80;;;18.50;97.00;;;;;;5012313;28;20030;-37
2023/10/07 12:49:45;;;;;;;9.20;2.78;;;18.50;97.00;;;;;;5012334;28;20025;-34
2023/10/07 12:52:11;;;;;;;4.22;2.88;;;18.50;97.00;;;;;;5012513;28;20109;-34
2023/10/07 12:54:37;;;;;;;4.35;2.60;;;18.50;97.00;;;;;;5012254;28;20430;-36
2023/10/07 12:57:03;;;;;;;5.53;2.60;;;18.50;97.00;;;;;;5012247;28;20040;-45
2023/10/07 12:59:35;;;;;;;5.05;3.00;;;18.50;97.00;;;;;;5012191;28;20033;-37
2023/10/07 13:02:03;;;;;;;4.90;2.92;;;18.50;97.00;;;;;;5012021;28;20458;-39
2023/10/07 13:04:34;;;;;;;4.07;2.50;;;18.50;97.00;;;;;;5012156;28;20487;-36
2023/10/07 13:07:03;;;;;;;6.10;2.97;;;18.50;97.00;;;;;;5012105;28;20033;-36
2023/10/07 13:09:30;;;;;;;4.57;2.67;;;18.50;97.00;;;;;;5012118;28;20073;-36
2023/10/07 13:11:57;;;;;;;4.95;2.80;;;18.50;97.00;;;;;;5012031;28;20431;-37
2023/10/07 13:14:26;;;;;;;7.35;3.00;;;18.50;97.00;;;;;;5011892;28;20120;-37
2023/10/07 13:16:56;;;;;;;4.40;2.38;;;18.50;97.10;;;;;;5011898;28;20033;-37
2023/10/07 13:19:26;;;;;;;4.13;2.47;;;18.50;97.10;;;;;;5011791;28;20053;-41
2023/10/07 13:21:55;;;;;;;4.32;2.35;;;18.50;97.10;;;;;;5011855;28;20060;-41
2023/10/07 13:24:39;;;;;;;5.30;3.15;;;18.50;97.10;;;;;;5012753;28;20509;-37
2023/10/07 13:27:04;;;;;;;4.13;2.58;;;18.50;97.10;;;;;;5011731;28;20021;-37
2023/10/07 13:29:34;;;;;;;5.68;2.90;;;18.50;97.10;;;;;;5011845;28;20025;-37
2023/10/07 13:32:09;;;;;;;5.28;2.40;;;18.50;97.10;;;;;;5012334;28;20571;-38
2023/10/07 13:34:38;;;;;;;4.28;2.72;;;18.50;97.10;;;;;;5012628;28;20034;-37